Time;durP1;ratioP1;P1;durP2;ratioP2;P2;SDS_P1;SDS_P2;PMS_P1;PMS_P2;Temp;Humidity;BMP_temperature;BMP_pressure;BME280_temperature;BME280_humidity;BME280_pressure;Samples;Min_cycle;Max_cycle;Signal;HPM_P1;HPM_P2
2022/02/03 00:04:20;;;;;;;13.63;4.53;;;9.60;99.90;;;;;;6131511;23;20219;-91
2022/02/03 00:06:57;;;;;;;4.83;2.53;;;9.70;99.90;;;;;;6160451;23;20273;-91
2022/02/03 00:10:30;;;;;;;10.27;4.67;;;9.70;99.90;;;;;;6134061;23;20225;-90
2022/02/03 00:25:42;;;;;;;4.60;3.33;;;9.80;99.90;;;;;;6187896;23;20665;-93
2022/02/03 00:28:25;;;;;;;9.97;3.80;;;9.70;99.90;;;;;;6157562;23;20279;-90
2022/02/03 00:33:59;;;;;;;7.20;3.87;;;9.70;99.90;;;;;;6188416;23;20190;-89
2022/02/03 00:36:39;;;;;;;5.20;3.53;;;9.60;99.90;;;;;;6157187;23;20227;-89
2022/02/03 00:50:04;;;;;;;9.60;6.07;;;9.60;99.90;;;;;;6160306;23;20249;-92
2022/02/03 00:52:34;;;;;;;11.07;3.67;;;9.60;99.90;;;;;;6135101;23;20201;-93
2022/02/03 00:55:00;;;;;;;5.03;4.50;;;9.60;99.90;;;;;;6188536;23;20209;-89
2022/02/03 00:57:48;;;;;;;10.37;4.73;;;9.60;99.90;;;;;;6157958;23;20195;-92
2022/02/03 01:00:17;;;;;;;22.70;4.37;;;9.60;99.90;;;;;;6191092;23;20182;-91
2022/02/03 01:02:47;;;;;;;6.90;5.10;;;9.70;99.90;;;;;;6192303;23;20163;-90
2022/02/03 01:05:14;;;;;;;9.37;5.50;;;9.70;99.90;;;;;;6160797;23;20255;-92
2022/02/03 01:07:46;;;;;;;19.07;4.37;;;9.70;99.90;;;;;;6143157;23;20196;-90
2022/02/03 01:10:17;;;;;;;9.37;6.90;;;9.70;99.90;;;;;;6162752;23;20796;-93
2022/02/03 01:15:25;;;;;;;4.40;3.00;;;9.70;99.90;;;;;;6193499;23;20143;-93
2022/02/03 01:45:06;;;;;;;5.77;4.90;;;9.70;99.90;;;;;;6183725;23;20194;-90
2022/02/03 01:52:47;;;;;;;7.50;3.97;;;9.70;99.90;;;;;;6180151;23;20205;-93
2022/02/03 01:55:20;;;;;;;12.53;4.73;;;9.70;99.90;;;;;;6148316;23;20205;-89
2022/02/03 01:58:12;;;;;;;5.40;3.70;;;9.70;99.90;;;;;;6151332;23;20206;-93
2022/02/03 02:00:55;;;;;;;7.93;3.67;;;9.70;99.90;;;;;;6148412;23;20580;-89
2022/02/03 02:03:32;;;;;;;7.27;5.40;;;9.70;99.90;;;;;;6176756;23;20685;-91
2022/02/03 02:06:09;;;;;;;12.13;4.23;;;9.70;99.90;;;;;;6178874;23;20157;-90
2022/02/03 02:09:00;;;;;;;3.67;3.03;;;9.70;99.90;;;;;;6150760;23;20213;-89
2022/02/03 02:11:48;;;;;;;13.70;5.07;;;9.70;99.90;;;;;;6178756;23;20185;-87
2022/02/03 02:39:33;;;;;;;4.60;3.93;;;9.80;99.90;;;;;;6180239;23;20187;-91
2022/02/03 02:45:06;;;;;;;3.23;2.40;;;9.80;99.90;;;;;;6180617;23;20195;-92
2022/02/03 02:47:57;;;;;;;5.97;4.03;;;9.80;99.90;;;;;;6149749;23;20222;-90
2022/02/03 02:50:35;;;;;;;1.90;1.27;;;9.80;99.90;;;;;;6149278;23;20627;-90
2022/02/03 02:53:35;;;;;;;4.57;2.80;;;9.80;99.90;;;;;;6147894;23;20567;-91
2022/02/03 03:29:00;;;;;;;7.00;2.87;;;9.80;99.90;;;;;;6179889;23;20464;-91
2022/02/03 03:34:53;;;;;;;11.60;3.30;;;9.80;99.90;;;;;;6181017;23;20642;-90
2022/02/03 03:37:51;;;;;;;4.23;2.47;;;9.80;99.90;;;;;;6180952;23;20198;-90
2022/02/03 03:40:11;;;;;;;6.07;3.20;;;9.80;99.90;;;;;;6155380;23;20627;-90
2022/02/03 03:42:41;;;;;;;1.77;1.63;;;9.70;99.90;;;;;;6151294;23;20187;-91
2022/02/03 03:45:10;;;;;;;7.87;1.87;;;9.70;99.90;;;;;;6147375;23;20675;-91
2022/02/03 03:47:39;;;;;;;10.33;2.20;;;9.70;99.90;;;;;;6127307;23;20171;-90
2022/02/03 03:50:15;;;;;;;5.97;2.30;;;9.70;99.90;;;;;;6179461;23;20246;-91
2022/02/03 03:52:55;;;;;;;3.87;2.43;;;9.70;99.90;;;;;;6152097;23;20567;-90
2022/02/03 04:30:35;;;;;;;2.60;1.50;;;9.50;99.90;;;;;;6178290;23;20628;-88
2022/02/03 04:39:23;;;;;;;3.10;2.80;;;9.60;99.90;;;;;;6060029;23;20161;-91
2022/02/03 04:57:24;;;;;;;2.20;2.03;;;9.60;99.90;;;;;;6178783;23;20191;-90
2022/02/03 05:02:59;;;;;;;2.17;2.00;;;9.50;99.90;;;;;;6179865;23;20186;-89
2022/02/03 05:12:32;;;;;;;4.23;2.43;;;9.50;99.90;;;;;;6103229;23;20194;-90
2022/02/03 05:34:25;;;;;;;5.67;3.63;;;9.40;99.90;;;;;;6177453;23;20585;-91
2022/02/03 05:43:19;;;;;;;7.47;5.83;;;9.40;99.90;;;;;;6175582;23;20210;-92
2022/02/03 05:45:52;;;;;;;9.03;5.97;;;9.30;99.90;;;;;;6168006;23;20289;-89
2022/02/03 06:02:13;;;;;;;14.13;6.87;;;9.40;99.90;;;;;;6177423;23;20206;-91
2022/02/03 06:16:17;;;;;;;18.33;11.30;;;9.40;99.90;;;;;;6022281;23;20511;-92
2022/02/03 06:24:03;;;;;;;13.60;7.67;;;9.40;99.90;;;;;;6175818;23;20197;-92
2022/02/03 06:29:19;;;;;;;14.63;6.93;;;9.40;99.90;;;;;;6176005;23;20686;-89
2022/02/03 06:31:49;;;;;;;19.23;8.87;;;9.40;99.90;;;;;;6124944;23;20207;-90
2022/02/03 06:34:16;;;;;;;12.17;6.77;;;9.40;99.90;;;;;;6145213;23;20226;-88
2022/02/03 06:36:43;;;;;;;9.53;6.43;;;9.40;99.90;;;;;;6148571;23;20221;-91
2022/02/03 06:39:14;;;;;;;26.93;9.03;;;9.40;99.90;;;;;;6174782;23;20159;-88
2022/02/03 06:41:40;;;;;;;11.07;6.63;;;9.40;99.90;;;;;;6149125;23;20261;-90
2022/02/03 06:44:06;;;;;;;23.07;8.27;;;9.40;99.90;;;;;;6144517;23;20203;-91
2022/02/03 06:46:33;;;;;;;19.60;8.20;;;9.40;99.90;;;;;;6097519;23;20685;-91
2022/02/03 06:49:11;;;;;;;17.00;7.03;;;9.40;99.90;;;;;;6120186;23;20207;-91
2022/02/03 06:51:44;;;;;;;17.23;6.47;;;9.40;99.90;;;;;;6175053;23;20221;-91
2022/02/03 06:54:18;;;;;;;14.10;6.33;;;9.40;99.90;;;;;;6146221;23;20411;-90
2022/02/03 06:56:53;;;;;;;10.67;6.33;;;9.40;99.90;;;;;;6128915;23;20170;-88
2022/02/03 06:59:25;;;;;;;8.77;4.37;;;9.40;99.90;;;;;;6146939;23;20194;-91
2022/02/03 07:01:51;;;;;;;5.33;3.47;;;9.40;99.90;;;;;;6152658;23;20505;-90
2022/02/03 07:04:24;;;;;;;12.73;6.50;;;9.40;99.90;;;;;;6098030;23;20305;-89
2022/02/03 07:06:50;;;;;;;8.93;8.03;;;9.50;99.90;;;;;;6146659;23;20210;-90
2022/02/03 07:09:16;;;;;;;9.60;4.33;;;9.40;99.90;;;;;;6121904;23;20164;-92
2022/02/03 07:11:43;;;;;;;9.37;5.90;;;9.40;99.90;;;;;;6151055;23;20195;-92
2022/02/03 07:14:10;;;;;;;6.33;4.47;;;9.40;99.90;;;;;;6146631;23;20726;-92
2022/02/03 07:16:46;;;;;;;22.83;4.47;;;9.40;99.90;;;;;;6149002;23;20639;-90
2022/02/03 07:19:12;;;;;;;5.43;3.93;;;9.30;99.90;;;;;;6178120;23;20201;-90
2022/02/03 07:21:39;;;;;;;8.10;3.07;;;9.30;99.90;;;;;;6101279;23;20207;-88
2022/02/03 07:24:05;;;;;;;9.30;4.90;;;9.30;99.90;;;;;;6146170;23;20226;-89
2022/02/03 07:26:30;;;;;;;6.63;4.87;;;9.30;99.90;;;;;;6124452;23;20608;-88
2022/02/03 07:28:56;;;;;;;10.33;5.70;;;9.30;99.90;;;;;;6097954;23;20210;-90
2022/02/03 07:31:22;;;;;;;7.30;4.30;;;9.30;99.90;;;;;;6146138;23;20211;-89
2022/02/03 07:33:48;;;;;;;9.67;3.93;;;9.20;99.90;;;;;;6145952;23;20261;-90
2022/02/03 07:36:13;;;;;;;18.10;6.23;;;9.20;99.90;;;;;;6146092;23;20385;-90
2022/02/03 07:38:40;;;;;;;6.03;4.83;;;9.30;99.90;;;;;;6101713;23;20201;-92
2022/02/03 07:41:06;;;;;;;7.43;4.80;;;9.20;99.90;;;;;;6177268;23;20271;-88
2022/02/03 07:43:32;;;;;;;6.33;4.20;;;9.20;99.90;;;;;;6123132;23;20203;-87
2022/02/03 07:45:58;;;;;;;5.43;3.43;;;9.20;99.90;;;;;;6121377;23;20290;-90
2022/02/03 07:48:24;;;;;;;10.63;3.77;;;9.20;99.90;;;;;;6172525;23;20194;-91
2022/02/03 07:50:50;;;;;;;9.10;4.57;;;9.20;99.90;;;;;;6178264;23;20166;-92
2022/02/03 07:53:16;;;;;;;7.10;3.67;;;9.20;99.90;;;;;;6146482;23;20201;-89
2022/02/03 07:55:42;;;;;;;8.20;5.67;;;9.20;99.90;;;;;;6101620;23;20201;-91
2022/02/03 07:58:08;;;;;;;12.83;6.33;;;9.20;99.90;;;;;;6121794;23;20673;-87
2022/02/03 08:00:34;;;;;;;12.50;7.10;;;9.20;99.90;;;;;;6123153;23;20207;-89
2022/02/03 08:03:05;;;;;;;6.07;4.23;;;9.20;99.90;;;;;;6146048;23;20577;-88
2022/02/03 08:05:31;;;;;;;23.87;7.93;;;9.10;99.90;;;;;;6147765;23;20152;-89
2022/02/03 08:08:06;;;;;;;6.67;6.07;;;9.20;99.90;;;;;;6121499;23;20226;-89
2022/02/03 08:13:04;;;;;;;6.33;3.90;;;9.20;99.90;;;;;;6146109;23;20639;-90
2022/02/03 08:15:31;;;;;;;14.87;4.73;;;9.20;99.90;;;;;;6147326;23;20635;-89
2022/02/03 08:18:02;;;;;;;11.10;3.87;;;9.20;99.90;;;;;;6123150;23;20985;-87
2022/02/03 08:20:29;;;;;;;6.50;4.30;;;9.20;99.90;;;;;;6147262;23;20207;-86
2022/02/03 08:25:45;;;;;;;4.50;3.47;;;9.20;99.90;;;;;;6129129;23;20195;-88
2022/02/03 08:31:03;;;;;;;4.13;2.20;;;9.20;99.90;;;;;;6165463;23;20202;-89
2022/02/03 08:33:30;;;;;;;5.33;3.43;;;9.10;99.90;;;;;;6177681;23;20205;-88
2022/02/03 08:35:58;;;;;;;4.37;3.37;;;9.10;99.90;;;;;;6152310;23;20187;-87
2022/02/03 08:41:00;;;;;;;2.43;1.90;;;9.20;99.90;;;;;;6144783;23;20258;-88
2022/02/03 08:43:28;;;;;;;8.87;2.53;;;9.10;99.90;;;;;;6121913;23;20542;-88
2022/02/03 08:45:54;;;;;;;14.77;3.00;;;9.10;99.90;;;;;;6145171;23;21011;-88
2022/02/03 08:48:20;;;;;;;3.83;3.03;;;9.10;99.90;;;;;;6121776;23;20207;-86
2022/02/03 08:50:46;;;;;;;1.73;1.53;;;9.20;99.90;;;;;;6126167;23;20259;-89
2022/02/03 09:00:48;;;;;;;2.13;1.97;;;9.30;99.90;;;;;;6122685;23;20206;-88
2022/02/03 09:36:37;;;;;;;4.13;2.50;;;9.40;99.90;;;;;;6149163;23;20179;-87
2022/02/03 09:39:00;;;;;;;3.33;2.67;;;9.40;99.90;;;;;;6142103;23;20193;-86
2022/02/03 09:42:02;;;;;;;2.43;2.23;;;9.40;99.90;;;;;;6127315;23;20257;-89
2022/02/03 09:50:31;;;;;;;4.83;3.50;;;9.30;99.90;;;;;;6176732;23;20757;-88
2022/02/03 10:00:53;;;;;;;2.53;2.33;;;9.40;99.90;;;;;;6147309;23;20215;-87
2022/02/03 10:03:36;;;;;;;2.90;2.23;;;9.40;99.90;;;;;;6145067;23;20218;-87
2022/02/03 10:06:11;;;;;;;2.93;1.93;;;9.30;99.90;;;;;;6166882;23;20189;-86
2022/02/03 10:08:43;;;;;;;3.47;1.80;;;9.40;99.90;;;;;;6148393;23;20158;-86
2022/02/03 10:11:18;;;;;;;3.10;2.00;;;9.40;99.90;;;;;;6122099;23;20940;-86
2022/02/03 10:13:52;;;;;;;2.13;1.17;;;9.40;99.90;;;;;;6148846;23;20202;-87
2022/02/03 10:16:29;;;;;;;2.20;1.70;;;9.30;99.90;;;;;;6176409;23;20201;-87
2022/02/03 10:19:09;;;;;;;6.83;3.23;;;9.20;99.90;;;;;;6145492;23;20233;-88
2022/02/03 10:21:35;;;;;;;3.37;3.07;;;9.30;99.90;;;;;;6147051;23;20207;-87
2022/02/03 10:24:03;;;;;;;2.03;1.93;;;9.30;99.90;;;;;;6144670;23;20187;-88
2022/02/03 10:26:40;;;;;;;2.37;2.17;;;9.30;99.90;;;;;;6148798;23;20156;-87
2022/02/03 10:29:13;;;;;;;1.43;1.33;;;9.30;99.90;;;;;;6177570;23;20209;-86
2022/02/03 10:31:41;;;;;;;9.20;3.03;;;9.20;99.90;;;;;;6177668;23;20203;-88
2022/02/03 10:34:11;;;;;;;3.73;3.23;;;9.20;99.90;;;;;;6146669;23;20219;-89
2022/02/03 10:37:01;;;;;;;14.03;3.30;;;9.20;99.90;;;;;;6126165;23;20350;-89
2022/02/03 10:55:50;;;;;;;1.37;1.27;;;9.30;99.90;;;;;;6147572;23;20778;-94
2022/02/03 10:58:38;;;;;;;1.57;1.47;;;9.30;99.90;;;;;;6171261;23;20273;-93
2022/02/03 11:01:22;;;;;;;4.57;2.50;;;9.20;99.90;;;;;;6177898;23;20215;-94
2022/02/03 11:06:29;;;;;;;2.80;2.00;;;9.30;99.90;;;;;;6147755;23;20195;-93
2022/02/03 11:11:38;;;;;;;1.27;1.17;;;9.40;99.90;;;;;;6130833;23;20265;-89
2022/02/03 11:14:05;;;;;;;3.13;1.50;;;9.30;99.90;;;;;;6152076;23;20199;-92
2022/02/03 11:16:37;;;;;;;4.37;2.77;;;9.30;99.90;;;;;;6156599;23;20251;-91
2022/02/03 11:19:05;;;;;;;6.97;2.40;;;9.30;99.90;;;;;;6181735;23;20199;-92
2022/02/03 11:21:35;;;;;;;3.00;2.23;;;9.30;99.90;;;;;;6160736;23;20258;-94
2022/02/03 11:24:14;;;;;;;5.93;2.97;;;9.40;99.90;;;;;;6103727;23;20178;-93
2022/02/03 11:26:55;;;;;;;2.73;2.27;;;9.40;99.90;;;;;;6165135;23;20132;-93
2022/02/03 11:32:18;;;;;;;5.03;2.17;;;9.50;99.90;;;;;;6201019;23;20329;-87
2022/02/03 11:37:37;;;;;;;2.10;1.27;;;9.40;99.90;;;;;;6211371;23;20270;-87
2022/02/03 11:41:21;;;;;;;2.13;1.80;;;9.40;99.90;;;;;;6163561;23;20209;-88
2022/02/03 11:43:30;;;;;;;1.63;1.27;;;9.40;99.90;;;;;;6194811;23;20217;-88
2022/02/03 12:16:05;;;;;;;1.33;1.23;;;9.50;99.90;;;;;;6188625;23;20189;-87
2022/02/03 12:20:56;;;;;;;4.23;1.63;;;9.60;99.90;;;;;;6160241;23;20468;-88
2022/02/03 12:24:13;;;;;;;3.70;2.77;;;9.60;99.90;;;;;;6184198;23;20490;-87
2022/02/03 12:26:45;;;;;;;3.03;2.83;;;9.60;99.90;;;;;;6200822;23;20217;-88
2022/02/03 12:29:16;;;;;;;5.53;1.43;;;9.60;99.90;;;;;;6160569;23;20532;-88
2022/02/03 12:31:59;;;;;;;2.20;2.10;;;9.70;99.90;;;;;;6136400;23;20217;-88
2022/02/03 12:38:06;;;;;;;3.23;1.83;;;9.80;99.90;;;;;;6166975;23;20202;-87
2022/02/03 12:40:04;;;;;;;1.33;1.17;;;9.70;99.90;;;;;;6152423;23;20209;-87
2022/02/03 12:42:48;;;;;;;2.07;1.83;;;9.80;99.90;;;;;;6160915;23;20760;-88
2022/02/03 12:45:23;;;;;;;1.57;1.37;;;9.70;99.90;;;;;;6165741;23;20177;-90
2022/02/03 12:47:52;;;;;;;11.73;1.73;;;9.80;99.90;;;;;;6164733;23;20185;-91
2022/02/03 12:50:23;;;;;;;1.63;1.30;;;9.80;99.90;;;;;;6186015;23;20197;-89
2022/02/03 12:52:49;;;;;;;1.10;1.00;;;9.80;99.90;;;;;;6186497;23;20206;-90
2022/02/03 12:55:25;;;;;;;10.73;3.07;;;9.90;99.90;;;;;;6161919;23;20208;-89
2022/02/03 12:57:51;;;;;;;10.17;4.53;;;10.00;99.90;;;;;;6186610;23;20201;-89
2022/02/03 13:00:26;;;;;;;5.03;1.20;;;9.90;99.90;;;;;;6137392;23;20166;-89
2022/02/03 13:02:55;;;;;;;1.73;1.63;;;9.80;99.90;;;;;;6164361;23;20154;-88
2022/02/03 13:05:22;;;;;;;20.70;2.27;;;9.80;99.90;;;;;;6186018;23;20198;-89
2022/02/03 13:07:54;;;;;;;3.37;1.67;;;9.80;99.90;;;;;;6161897;23;20206;-89
2022/02/03 13:10:23;;;;;;;2.03;1.50;;;9.70;99.90;;;;;;6186775;23;20726;-89
2022/02/03 13:12:59;;;;;;;4.10;1.63;;;9.70;99.90;;;;;;6186860;23;20513;-91
2022/02/03 13:15:39;;;;;;;2.97;1.63;;;9.60;99.90;;;;;;6163916;23;20607;-89
2022/02/03 13:18:11;;;;;;;6.23;2.03;;;9.70;99.90;;;;;;6187214;23;20156;-92
2022/02/03 13:20:43;;;;;;;2.50;1.63;;;9.70;99.90;;;;;;6164011;23;20173;-90
2022/02/03 13:23:14;;;;;;;5.13;0.90;;;9.70;99.90;;;;;;6162770;23;20194;-91
2022/02/03 13:26:28;;;;;;;9.07;3.87;;;9.70;99.90;;;;;;6139061;23;20256;-91
2022/02/03 13:28:45;;;;;;;1.83;1.30;;;9.80;99.90;;;;;;6160006;23;20193;-91
2022/02/03 13:31:22;;;;;;;3.57;3.27;;;9.90;99.90;;;;;;6165103;23;20230;-91
2022/02/03 13:33:58;;;;;;;4.50;2.27;;;10.00;99.90;;;;;;6186442;23;20228;-89
2022/02/03 13:36:30;;;;;;;3.87;3.17;;;10.00;99.90;;;;;;6139452;23;20193;-90
2022/02/03 13:39:04;;;;;;;4.47;2.67;;;10.00;99.90;;;;;;6187885;23;20142;-90
2022/02/03 13:41:34;;;;;;;2.23;2.03;;;10.10;99.90;;;;;;6187250;23;20528;-90
2022/02/03 13:44:08;;;;;;;11.93;2.53;;;10.00;99.90;;;;;;6163101;23;20200;-90
2022/02/03 13:46:37;;;;;;;1.40;1.30;;;10.00;99.90;;;;;;6186224;23;20654;-90
2022/02/03 13:49:11;;;;;;;5.80;1.23;;;10.00;99.90;;;;;;6186434;23;20194;-91
2022/02/03 13:51:41;;;;;;;6.30;2.57;;;9.90;99.90;;;;;;6187272;23;20261;-91
2022/02/03 13:54:31;;;;;;;7.87;4.90;;;9.90;99.90;;;;;;6162077;23;20245;-92
2022/02/03 14:21:42;;;;;;;1.50;1.00;;;9.80;99.90;;;;;;6158477;23;20281;-91
2022/02/03 14:29:57;;;;;;;1.90;1.70;;;9.80;99.90;;;;;;6186234;23;20516;-89
2022/02/03 14:32:37;;;;;;;4.37;1.60;;;9.80;99.90;;;;;;6138768;23;20236;-90
2022/02/03 14:35:08;;;;;;;4.00;2.33;;;9.80;99.90;;;;;;6139561;23;20193;-89
2022/02/03 14:37:44;;;;;;;1.67;1.13;;;9.80;99.90;;;;;;6183456;23;20201;-90
2022/02/03 14:42:40;;;;;;;5.30;1.50;;;9.60;99.90;;;;;;6182948;23;20229;-90
2022/02/03 14:45:07;;;;;;;2.83;2.10;;;9.60;99.90;;;;;;6209470;23;20166;-90
2022/02/03 14:47:33;;;;;;;2.97;1.47;;;9.60;99.90;;;;;;6135348;23;20577;-90
2022/02/03 14:50:02;;;;;;;2.60;1.67;;;9.60;99.90;;;;;;6134140;23;20198;-89
2022/02/03 14:52:32;;;;;;;5.87;2.07;;;9.60;99.90;;;;;;6159075;23;20260;-90
2022/02/03 15:00:28;;;;;;;1.77;1.63;;;9.50;99.90;;;;;;6210207;23;20193;-90
2022/02/03 15:02:55;;;;;;;3.90;1.47;;;9.50;99.90;;;;;;6183910;23;20596;-90
2022/02/03 15:05:25;;;;;;;3.63;2.67;;;9.50;99.90;;;;;;6182784;23;20699;-90
2022/02/03 15:08:03;;;;;;;2.63;1.63;;;9.50;99.90;;;;;;6159381;23;20194;-90
2022/02/03 15:13:11;;;;;;;2.63;1.80;;;9.40;99.90;;;;;;6161906;23;20224;-91
2022/02/03 15:15:37;;;;;;;2.13;1.83;;;9.40;99.90;;;;;;6185148;23;20189;-90
2022/02/03 15:18:03;;;;;;;1.50;1.40;;;9.40;99.90;;;;;;6135666;23;20576;-90
2022/02/03 15:20:30;;;;;;;0.67;0.67;;;9.40;99.90;;;;;;6185798;23;20209;-91
2022/02/03 15:22:56;;;;;;;2.10;1.50;;;9.40;99.90;;;;;;6135958;23;20198;-89
2022/02/03 15:25:22;;;;;;;9.27;2.33;;;9.40;99.90;;;;;;6184162;23;20300;-90
2022/02/03 15:27:48;;;;;;;2.30;1.70;;;9.40;99.90;;;;;;6160193;23;20280;-90
2022/02/03 15:30:15;;;;;;;1.80;1.63;;;9.40;99.90;;;;;;6159756;23;20170;-90
2022/02/03 15:32:42;;;;;;;6.10;1.67;;;9.30;99.90;;;;;;6160191;23;20380;-90
2022/02/03 15:35:18;;;;;;;1.57;1.27;;;9.30;99.90;;;;;;6135885;23;20198;-90
2022/02/03 15:37:48;;;;;;;2.20;1.33;;;9.40;99.90;;;;;;6184248;23;20220;-91
2022/02/03 15:40:19;;;;;;;9.23;1.73;;;9.30;99.90;;;;;;6136878;23;20198;-91
2022/02/03 15:42:54;;;;;;;2.17;1.97;;;9.30;99.90;;;;;;6185337;23;20729;-88
2022/02/03 15:45:19;;;;;;;5.33;1.90;;;9.30;99.90;;;;;;6162119;23;20216;-90
2022/02/03 15:47:51;;;;;;;5.10;1.87;;;9.30;99.90;;;;;;6136236;23;20159;-90
2022/02/03 16:19:15;;;;;;;11.97;2.53;;;9.30;99.90;;;;;;6189525;23;20205;-90
2022/02/03 16:21:48;;;;;;;1.07;1.00;;;9.30;99.90;;;;;;6136296;23;20257;-90
2022/02/03 16:24:24;;;;;;;8.13;1.97;;;9.20;99.90;;;;;;6138638;23;20491;-89
2022/02/03 16:51:11;;;;;;;3.60;2.37;;;9.20;99.90;;;;;;6171514;23;20193;-90
2022/02/03 16:53:37;;;;;;;8.10;3.03;;;9.20;99.90;;;;;;6145984;23;20178;-90
2022/02/03 16:56:08;;;;;;;3.13;2.17;;;9.20;99.90;;;;;;6135144;23;20198;-90
2022/02/03 16:58:35;;;;;;;4.13;1.83;;;9.10;99.90;;;;;;6161138;23;20198;-90
2022/02/03 17:01:01;;;;;;;10.00;3.50;;;9.10;99.90;;;;;;6135298;23;20259;-90
2022/02/03 17:03:27;;;;;;;8.80;2.03;;;9.10;99.90;;;;;;6134434;23;20195;-89
2022/02/03 17:05:53;;;;;;;2.57;1.53;;;9.10;99.90;;;;;;6161974;23;20158;-90
2022/02/03 17:08:20;;;;;;;5.53;2.40;;;9.10;99.90;;;;;;6183981;23;20220;-90
2022/02/03 17:10:47;;;;;;;1.07;1.07;;;9.10;99.90;;;;;;6159719;23;20650;-90
2022/02/03 17:13:13;;;;;;;2.53;1.83;;;9.10;99.90;;;;;;6159789;23;20198;-89
2022/02/03 17:15:38;;;;;;;2.37;2.07;;;9.10;99.90;;;;;;6159369;23;20197;-90
2022/02/03 17:18:04;;;;;;;17.10;3.33;;;9.10;99.90;;;;;;6159707;23;20166;-89
2022/02/03 17:20:33;;;;;;;3.60;2.73;;;9.10;99.90;;;;;;6135483;23;20515;-90
2022/02/03 17:23:00;;;;;;;11.37;3.83;;;9.00;99.90;;;;;;6136063;23;20190;-91
2022/02/03 17:25:35;;;;;;;3.13;2.03;;;9.10;99.90;;;;;;6159119;23;20284;-91
2022/02/03 17:28:08;;;;;;;7.13;1.80;;;9.10;99.90;;;;;;6138735;23;20193;-90
2022/02/03 17:30:44;;;;;;;1.87;1.77;;;9.00;99.90;;;;;;6161103;23;20580;-91
2022/02/03 18:04:08;;;;;;;2.60;2.33;;;9.10;99.90;;;;;;6210866;23;20220;-92
2022/02/03 18:25:46;;;;;;;3.97;3.40;;;9.00;99.90;;;;;;6185692;23;20573;-91
2022/02/03 18:25:52;;;;;;;7.47;2.40;;;9.00;99.90;;;;;;6162380;23;20232;-92
2022/02/03 18:29:13;;;;;;;4.43;2.80;;;9.00;99.90;;;;;;6166897;23;20244;-92
2022/02/03 18:31:03;;;;;;;2.90;1.50;;;9.00;99.90;;;;;;6188629;23;20202;-93
2022/02/03 18:52:38;;;;;;;1.57;1.47;;;9.00;99.90;;;;;;6167469;23;20239;-91
2022/02/03 18:55:15;;;;;;;5.37;2.63;;;9.00;99.90;;;;;;6141493;23;20860;-92
2022/02/03 18:58:01;;;;;;;7.60;2.20;;;9.00;99.90;;;;;;6187168;23;20963;-92
2022/02/03 19:03:19;;;;;;;2.80;2.53;;;9.00;99.90;;;;;;6161515;23;20281;-92
2022/02/03 20:05:40;;;;;;;1.87;1.60;;;9.00;99.90;;;;;;6189522;23;20178;-93
2022/02/03 20:10:38;;;;;;;3.77;1.97;;;9.00;99.90;;;;;;6185644;23;20193;-92
2022/02/03 20:13:04;;;;;;;2.97;1.57;;;9.00;99.90;;;;;;6139012;23;20194;-89
2022/02/03 20:15:34;;;;;;;1.90;1.77;;;9.00;99.90;;;;;;6160197;23;20193;-92
2022/02/03 20:18:12;;;;;;;1.17;1.00;;;9.00;99.90;;;;;;6186738;23;20146;-92
2022/02/03 20:20:39;;;;;;;1.97;1.87;;;9.00;99.90;;;;;;6211815;23;20173;-92
2022/02/03 20:23:09;;;;;;;4.97;4.30;;;9.00;99.90;;;;;;6160392;23;20215;-90
2022/02/03 20:25:37;;;;;;;5.53;1.80;;;9.00;99.90;;;;;;6186717;23;20669;-91
2022/02/03 20:28:04;;;;;;;3.50;2.10;;;9.00;99.90;;;;;;6160767;23;20709;-90
2022/02/03 20:30:31;;;;;;;3.90;2.17;;;9.00;99.90;;;;;;6160476;23;20186;-90
2022/02/03 20:32:57;;;;;;;1.77;1.43;;;9.00;99.90;;;;;;6136430;23;20197;-90
2022/02/03 20:35:23;;;;;;;3.70;1.43;;;9.00;99.90;;;;;;6135806;23;20289;-90
2022/02/03 20:37:49;;;;;;;2.30;1.77;;;9.00;99.90;;;;;;6135670;23;20201;-93
2022/02/03 20:40:15;;;;;;;2.17;1.37;;;9.00;99.90;;;;;;6136141;23;20209;-93
2022/02/03 20:42:41;;;;;;;13.47;2.13;;;9.00;99.90;;;;;;6136961;23;20209;-93
2022/02/03 20:45:08;;;;;;;2.47;1.33;;;9.00;99.90;;;;;;6185182;23;20165;-92
2022/02/03 20:47:34;;;;;;;2.67;1.30;;;9.00;99.90;;;;;;6161035;23;20510;-93
2022/02/03 20:50:17;;;;;;;1.83;1.20;;;9.00;99.90;;;;;;6160401;23;20657;-93
2022/02/03 20:52:43;;;;;;;10.53;1.30;;;9.00;99.90;;;;;;6185187;23;21027;-92
2022/02/03 20:55:09;;;;;;;4.63;2.73;;;9.00;99.90;;;;;;6161218;23;20272;-93
2022/02/03 20:57:35;;;;;;;2.37;1.63;;;9.00;99.90;;;;;;6186113;23;20202;-93
2022/02/03 21:02:46;;;;;;;1.77;1.67;;;9.00;99.90;;;;;;6212442;23;20189;-92
2022/02/03 21:05:16;;;;;;;1.37;1.17;;;9.00;99.90;;;;;;6143209;23;20503;-93
2022/02/03 21:07:47;;;;;;;0.87;0.87;;;9.00;99.90;;;;;;6159777;23;20198;-93
2022/02/03 21:10:17;;;;;;;5.57;1.37;;;9.10;99.90;;;;;;6135621;23;20222;-93
2022/02/03 21:12:46;;;;;;;2.57;0.87;;;9.00;99.90;;;;;;6184054;23;20219;-92
2022/02/03 21:15:20;;;;;;;0.70;0.63;;;9.00;99.90;;;;;;6160533;23;20467;-92
2022/02/03 21:17:46;;;;;;;3.27;1.77;;;9.00;99.90;;;;;;6164142;23;20147;-92
2022/02/03 21:20:14;;;;;;;1.37;1.20;;;9.00;99.90;;;;;;6160554;23;20252;-93
2022/02/03 21:22:40;;;;;;;1.33;1.13;;;9.00;99.90;;;;;;6135513;23;20205;-92
2022/02/03 21:25:16;;;;;;;5.30;2.70;;;9.00;99.90;;;;;;6185342;23;20202;-93
2022/02/03 21:27:42;;;;;;;1.20;1.10;;;9.00;99.90;;;;;;6184404;23;20216;-94
2022/02/03 21:30:09;;;;;;;2.30;2.17;;;9.00;99.90;;;;;;6160565;23;20166;-93
2022/02/03 21:32:37;;;;;;;4.40;1.73;;;9.00;99.90;;;;;;6136093;23;20202;-93
2022/02/03 21:35:06;;;;;;;1.43;1.00;;;9.00;99.90;;;;;;6161511;23;20198;-92
2022/02/03 21:37:33;;;;;;;0.87;0.87;;;9.00;99.90;;;;;;6161599;23;20735;-92
2022/02/03 21:39:59;;;;;;;1.07;0.70;;;9.00;99.90;;;;;;6160094;23;20221;-93
2022/02/03 21:42:25;;;;;;;2.53;1.63;;;9.00;99.90;;;;;;6184566;23;20209;-92
2022/02/03 21:44:51;;;;;;;4.33;2.63;;;8.90;99.90;;;;;;6161890;23;20589;-91
2022/02/03 21:47:18;;;;;;;3.07;2.53;;;8.90;99.90;;;;;;6161052;23;20198;-90
2022/02/03 21:49:45;;;;;;;1.10;1.10;;;8.90;99.90;;;;;;6160985;23;20268;-93
2022/02/03 21:52:19;;;;;;;0.97;0.70;;;8.90;99.90;;;;;;6161534;23;20202;-93
2022/02/03 21:54:45;;;;;;;3.40;1.13;;;8.80;99.90;;;;;;6161725;23;20209;-92
2022/02/03 21:57:12;;;;;;;7.17;1.60;;;8.80;99.90;;;;;;6159540;23;20162;-92
2022/02/03 21:59:38;;;;;;;3.10;0.67;;;8.80;99.90;;;;;;6135477;23;20158;-92
2022/02/03 22:02:06;;;;;;;2.77;1.03;;;8.80;99.90;;;;;;6158640;23;20232;-91
2022/02/03 22:04:32;;;;;;;1.53;1.07;;;8.80;99.90;;;;;;6159535;23;20193;-90
2022/02/03 22:06:57;;;;;;;1.80;1.03;;;8.80;99.90;;;;;;6135961;23;20190;-88
2022/02/03 22:09:23;;;;;;;0.50;0.50;;;8.70;99.90;;;;;;6135493;23;20198;-89
2022/02/03 22:11:49;;;;;;;2.53;1.13;;;8.70;99.90;;;;;;6135967;23;20193;-88
2022/02/03 22:14:16;;;;;;;1.80;1.70;;;8.60;99.90;;;;;;6159399;23;20686;-91
2022/02/03 22:16:41;;;;;;;1.00;1.00;;;8.60;99.90;;;;;;6159129;23;21290;-91
2022/02/03 22:19:07;;;;;;;6.57;2.07;;;8.50;99.90;;;;;;6135557;23;20197;-91
2022/02/03 22:24:20;;;;;;;0.77;0.77;;;8.40;99.90;;;;;;6163930;23;20658;-88
2022/02/03 22:27:07;;;;;;;1.37;0.50;;;8.40;99.90;;;;;;6165251;23;20213;-92
2022/02/03 22:48:32;;;;;;;1.80;0.80;;;7.90;99.90;;;;;;6186677;23;20194;-91
2022/02/03 22:51:01;;;;;;;1.83;1.50;;;7.80;99.90;;;;;;6161827;23;20170;-91
2022/02/03 22:53:33;;;;;;;2.50;1.37;;;7.80;99.90;;;;;;6213384;23;20165;-91
2022/02/03 22:56:01;;;;;;;4.27;2.43;;;7.70;99.90;;;;;;6185523;23;20197;-91
2022/02/03 23:01:13;;;;;;;1.83;1.73;;;7.70;99.90;;;;;;6212366;23;20201;-91
2022/02/03 23:03:41;;;;;;;3.80;1.40;;;7.70;99.90;;;;;;6185560;23;20196;-89
2022/02/03 23:06:08;;;;;;;1.23;1.20;;;7.70;99.90;;;;;;6185736;23;20181;-92
2022/02/03 23:14:37;;;;;;;2.87;1.23;;;7.70;99.90;;;;;;6185896;23;20198;-89
2022/02/03 23:20:03;;;;;;;3.53;3.33;;;7.60;99.90;;;;;;6168792;23;20205;-91
2022/02/03 23:22:29;;;;;;;4.30;1.33;;;7.60;99.90;;;;;;6142518;23;20233;-91
2022/02/03 23:24:56;;;;;;;0.80;0.80;;;7.60;99.90;;;;;;6185554;23;20198;-91
2022/02/03 23:29:59;;;;;;;1.00;0.93;;;7.50;99.90;;;;;;6212460;23;20149;-91
2022/02/03 23:32:27;;;;;;;1.63;1.53;;;7.50;99.90;;;;;;6136459;23;20206;-91
2022/02/03 23:38:01;;;;;;;3.57;2.87;;;7.40;99.90;;;;;;6147322;23;20276;-92
2022/02/03 23:43:55;;;;;;;1.97;1.80;;;7.30;99.90;;;;;;6129679;23;20212;-91
